map of BJA home
BJA - Airport
Location
City:  Bejaia, Béjaïa, Algeria
Name:Soummam -Abane Ramdane Airport
ICAO:DAAE
IATA:BJA

Details
Type:Airport (Aerodrome, Airfield)
Use:Public/Civil, International (customs port of entry)
Latitude:36°42'43"N (36.711944)
Longitude:5°04'10"E (5.069444)
Elevation:20 ft (6 m)
Variation:1.55°E (WMM2015 magnetic declination)
0.10° annual change
Runways:1
Longest:7874 × 148 ft (2400 × 45 m)

Time
Time Zone:UTC+1
Local Time:

Weather
METAR:DAAE 182000Z 21004KT 8000 FEW023 SCT090 09/08 Q1017
TAF:DAAE 181700Z 1818/1918 29012KT 9999 FEW023 BKN040 PROB40
TEMPO 1818/1822 27015G25KT 5000 RA FEW020CB
BECMG 1822/1824 22008KT PROB40
TEMPO 1904/1912 5000 RA FEW020CB BKN015
BECMG 1908/1910 28012KT PROB40
TEMPO 1912/1918 5000 -RA FEW26TCU

Related Locations
Nearby:
Farthest:GIS: 12030 mi / 19361 km
Gisborne, GIS, NZ

Find:

   beyond  
but within

Other Information
Maps:
NOTAMs:
Links:
Sources:

  
  • flag of Algeria
  

Sectional Chart

Flight Planning
at skyvector.com

Satellite Image

Google Maps Satellite view

 

Copyright © 2004-2019 Karl L. Swartz. All rights reserved.
The Great Circle Mapper name and logo are trademarks of the Great Circle Mapper.
All other trademarks mentioned herein belong to their respective owners.
Please see credits for attibutions and further copyright information.

  Follow gcmap on Facebook Follow gcmap on Twitter Follow gcmap on Google+ GCmap on LinkedIn

hCard Microformat

Geo Microformat